createdAt,value
2019-03-20T00:00:01.518Z,-87
2019-03-20T00:02:33.393Z,-86
2019-03-20T00:05:05.991Z,-86
2019-03-20T00:07:37.845Z,-86
2019-03-20T00:10:11.056Z,-86
2019-03-20T00:12:42.980Z,-86
2019-03-20T00:15:15.019Z,-87
2019-03-20T00:17:47.684Z,-86
2019-03-20T00:20:19.570Z,-87
2019-03-20T00:22:51.694Z,-86
2019-03-20T00:25:23.636Z,-87
2019-03-20T00:27:55.483Z,-87
2019-03-20T00:30:27.348Z,-87
2019-03-20T00:32:59.168Z,-86
2019-03-20T00:35:31.376Z,-86
2019-03-20T00:38:03.834Z,-87
2019-03-20T00:40:36.233Z,-87
2019-03-20T00:43:08.071Z,-87
2019-03-20T00:45:40.458Z,-87
2019-03-20T00:48:12.341Z,-87
2019-03-20T00:50:44.600Z,-86
2019-03-20T00:53:16.809Z,-87
2019-03-20T00:55:49.048Z,-87
2019-03-20T00:58:20.899Z,-86
2019-03-20T01:00:53.029Z,-86
2019-03-20T01:03:25.269Z,-86
2019-03-20T01:05:57.436Z,-86
2019-03-20T01:08:29.563Z,-87
2019-03-20T01:11:01.771Z,-87
2019-03-20T01:13:34.272Z,-87
2019-03-20T01:16:06.157Z,-86
2019-03-20T01:18:38.862Z,-86
2019-03-20T01:21:10.718Z,-86
2019-03-20T01:23:43.139Z,-85
2019-03-20T01:26:15.316Z,-86
2019-03-20T01:28:47.169Z,-86
2019-03-20T01:31:19.652Z,-87
2019-03-20T01:33:54.823Z,-87
2019-03-20T01:36:26.176Z,-87
2019-03-20T01:38:58.143Z,-87
2019-03-20T01:41:37.571Z,-87
2019-03-20T01:44:03.810Z,-87
2019-03-20T01:46:36.315Z,-86
2019-03-20T01:49:08.151Z,-86
2019-03-20T01:51:40.008Z,-87
2019-03-20T01:54:11.865Z,-87
2019-03-20T01:56:44.050Z,-87
2019-03-20T01:59:16.251Z,-87
2019-03-20T02:01:48.512Z,-86
2019-03-20T02:04:24.135Z,-87
2019-03-20T02:06:56.307Z,-86
2019-03-20T02:09:28.116Z,-86
2019-03-20T02:12:00.002Z,-87
2019-03-20T02:14:31.825Z,-87
2019-03-20T02:17:04.004Z,-87
2019-03-20T02:19:35.842Z,-87
2019-03-20T02:22:08.012Z,-86
2019-03-20T02:24:39.859Z,-87
2019-03-20T02:27:12.043Z,-87
2019-03-20T02:29:44.258Z,-87
2019-03-20T02:32:16.155Z,-86
2019-03-20T02:34:48.412Z,-87
2019-03-20T02:37:20.756Z,-87
2019-03-20T02:39:52.987Z,-87
2019-03-20T02:42:24.862Z,-87
2019-03-20T02:44:56.986Z,-87
2019-03-20T02:47:29.235Z,-86
2019-03-20T02:50:01.416Z,-87
2019-03-20T02:52:33.288Z,-87
2019-03-20T02:55:06.280Z,-87
2019-03-20T02:57:38.957Z,-87
2019-03-20T03:00:12.931Z,-86
2019-03-20T03:02:45.120Z,-87
2019-03-20T03:05:17.346Z,-87
2019-03-20T03:07:49.728Z,-87
2019-03-20T03:10:21.526Z,-87
2019-03-20T03:12:53.386Z,-86
2019-03-20T03:15:25.499Z,-87
2019-03-20T03:17:57.382Z,-86
2019-03-20T03:20:29.207Z,-87
2019-03-20T03:23:01.087Z,-86
2019-03-20T03:25:32.917Z,-86
2019-03-20T03:28:04.780Z,-87
2019-03-20T03:30:36.622Z,-87
2019-03-20T03:33:08.512Z,-86
2019-03-20T03:35:40.329Z,-86
2019-03-20T03:38:12.183Z,-86
2019-03-20T03:40:44.443Z,-87
2019-03-20T03:43:16.655Z,-87
2019-03-20T03:45:48.770Z,-87
2019-03-20T03:48:20.671Z,-86
2019-03-20T03:50:52.613Z,-86
2019-03-20T03:53:24.474Z,-87
2019-03-20T03:55:56.815Z,-87
2019-03-20T03:58:28.988Z,-87
2019-03-20T04:01:00.881Z,-87
2019-03-20T04:03:32.737Z,-87
2019-03-20T04:06:05.058Z,-86
2019-03-20T04:08:36.903Z,-87
2019-03-20T04:11:09.136Z,-86
2019-03-20T04:13:41.025Z,-87
2019-03-20T04:16:12.858Z,-86
2019-03-20T04:18:44.756Z,-86
2019-03-20T04:21:16.609Z,-87
2019-03-20T04:23:49.013Z,-87
2019-03-20T04:26:20.847Z,-87
2019-03-20T04:28:53.692Z,-87
2019-03-20T04:31:25.539Z,-87
2019-03-20T04:33:57.781Z,-87
2019-03-20T04:36:30.039Z,-87
2019-03-20T04:39:02.072Z,-87
2019-03-20T04:41:34.223Z,-87
2019-03-20T04:44:06.272Z,-86
2019-03-20T04:46:38.172Z,-87
2019-03-20T04:49:10.034Z,-87
2019-03-20T04:51:41.862Z,-87
2019-03-20T04:54:13.736Z,-87
2019-03-20T04:56:46.154Z,-86
2019-03-20T04:59:18.367Z,-86
2019-03-20T05:01:50.485Z,-86
2019-03-20T05:04:22.370Z,-86
2019-03-20T05:06:59.136Z,-87
2019-03-20T05:09:28.104Z,-86
2019-03-20T05:12:00.334Z,-87
2019-03-20T05:14:32.846Z,-87
2019-03-20T05:17:04.664Z,-86
2019-03-20T05:19:36.558Z,-86
2019-03-20T05:22:08.369Z,-86
2019-03-20T05:24:40.278Z,-86
2019-03-20T05:27:12.133Z,-86
2019-03-20T05:29:44.748Z,-86
2019-03-20T05:32:16.732Z,-87
2019-03-20T05:34:49.219Z,-87
2019-03-20T05:37:22.038Z,-86
2019-03-20T05:39:55.177Z,-86
2019-03-20T05:42:27.021Z,-86
2019-03-20T05:44:58.909Z,-85
2019-03-20T05:47:31.201Z,-87
2019-03-20T05:50:03.073Z,-86
2019-03-20T05:52:34.912Z,-85
2019-03-20T05:55:06.910Z,-86
2019-03-20T05:57:38.793Z,-85
2019-03-20T06:00:13.587Z,-85
2019-03-20T06:02:45.562Z,-85
2019-03-20T06:05:18.155Z,-85
2019-03-20T06:07:50.479Z,-85
2019-03-20T06:10:22.403Z,-84
2019-03-20T06:12:55.144Z,-86
2019-03-20T06:15:27.156Z,-85
2019-03-20T06:17:59.109Z,-85
2019-03-20T06:20:33.708Z,-86
2019-03-20T06:23:05.171Z,-86
2019-03-20T06:25:38.037Z,-85
2019-03-20T06:28:09.895Z,-85
2019-03-20T06:30:42.342Z,-85
2019-03-20T06:33:14.224Z,-86
2019-03-20T06:35:46.169Z,-88
2019-03-20T06:38:18.095Z,-88
2019-03-20T06:40:50.212Z,-88
2019-03-20T06:43:22.440Z,-87
2019-03-20T06:45:55.130Z,-87
2019-03-20T06:48:27.020Z,-87
2019-03-20T06:50:58.957Z,-88
2019-03-20T06:53:31.566Z,-87
2019-03-20T06:56:03.584Z,-87
2019-03-20T06:58:35.584Z,-89
2019-03-20T07:01:29.203Z,-89
2019-03-20T07:04:39.189Z,-89
2019-03-20T07:07:20.901Z,-89
2019-03-20T07:10:03.572Z,-90
2019-03-20T07:12:35.469Z,-89
2019-03-20T07:15:07.389Z,-88
2019-03-20T07:17:39.304Z,-88
2019-03-20T07:20:11.990Z,-89
2019-03-20T07:22:43.879Z,-89
2019-03-20T07:25:15.696Z,-89
2019-03-20T07:27:47.897Z,-88
2019-03-20T07:30:20.064Z,-91
2019-03-20T07:32:51.944Z,-92
2019-03-20T07:35:23.777Z,-89
2019-03-20T07:37:56.483Z,-92
2019-03-20T07:40:28.879Z,-85
2019-03-20T07:43:08.759Z,-85
2019-03-20T07:45:34.816Z,-90
2019-03-20T07:48:06.728Z,-90
2019-03-20T07:50:39.083Z,-90
2019-03-20T07:53:10.975Z,-90
2019-03-20T07:55:43.133Z,-90
2019-03-20T07:58:18.852Z,-90
2019-03-20T08:00:50.697Z,-88
2019-03-20T08:06:00.224Z,-88
2019-03-20T08:08:33.072Z,-86
2019-03-20T08:11:05.248Z,-86
2019-03-20T08:13:37.593Z,-86
2019-03-20T08:16:09.425Z,-86
2019-03-20T08:18:42.063Z,-88
2019-03-20T08:21:13.995Z,-84
2019-03-20T08:23:45.890Z,-84
2019-03-20T08:26:18.604Z,-84
2019-03-20T08:28:50.736Z,-84
2019-03-20T08:31:22.560Z,-84
2019-03-20T08:33:54.427Z,-84
2019-03-20T08:36:26.552Z,-82
2019-03-20T08:38:58.706Z,-83
2019-03-20T08:41:30.540Z,-82
2019-03-20T08:44:02.868Z,-84
2019-03-20T08:46:34.757Z,-84
2019-03-20T08:49:06.656Z,-82
2019-03-20T08:51:38.478Z,-81
2019-03-20T08:54:10.830Z,-81
2019-03-20T08:56:43.061Z,-81
2019-03-20T08:59:14.922Z,-81
2019-03-20T09:01:46.803Z,-83
2019-03-20T09:04:19.251Z,-81
2019-03-20T09:06:52.273Z,-82
2019-03-20T09:09:24.442Z,-82
2019-03-20T09:11:56.309Z,-83
2019-03-20T09:14:28.186Z,-83
2019-03-20T09:17:00.364Z,-83
2019-03-20T09:19:32.231Z,-82
2019-03-20T09:22:04.057Z,-80
2019-03-20T09:24:35.941Z,-80
2019-03-20T09:27:08.178Z,-81
2019-03-20T09:29:41.216Z,-81
2019-03-20T09:32:13.155Z,-80
2019-03-20T09:34:45.020Z,-80
2019-03-20T09:37:16.842Z,-80
2019-03-20T09:39:48.737Z,-80
2019-03-20T09:42:20.575Z,-82
2019-03-20T09:44:52.429Z,-80
2019-03-20T09:47:24.525Z,-83
2019-03-20T09:49:56.580Z,-80
2019-03-20T09:52:28.444Z,-81
2019-03-20T09:55:00.776Z,-82
2019-03-20T09:57:32.633Z,-82
2019-03-20T10:00:05.703Z,-82
2019-03-20T10:02:37.584Z,-83
2019-03-20T10:05:09.532Z,-83
2019-03-20T10:07:41.394Z,-82
2019-03-20T10:10:16.436Z,-83
2019-03-20T10:12:48.797Z,-80
2019-03-20T10:15:20.723Z,-83
2019-03-20T10:17:52.637Z,-83
2019-03-20T10:20:24.895Z,-83
2019-03-20T10:22:56.819Z,-83
2019-03-20T10:25:28.687Z,-82
2019-03-20T10:28:00.566Z,-81
2019-03-20T10:30:32.403Z,-83
2019-03-20T10:33:04.293Z,-82
2019-03-20T10:35:36.111Z,-82
2019-03-20T10:38:08.306Z,-83
2019-03-20T10:40:40.495Z,-82
2019-03-20T10:43:12.443Z,-82
2019-03-20T10:45:44.372Z,-81
2019-03-20T10:48:16.285Z,-83
2019-03-20T10:50:48.142Z,-83
2019-03-20T10:53:20.146Z,-84
2019-03-20T10:55:52.110Z,-83
2019-03-20T10:58:24.950Z,-82
2019-03-20T11:00:56.781Z,-81
2019-03-20T11:03:29.272Z,-82
2019-03-20T11:06:01.160Z,-82
2019-03-20T11:08:33.516Z,-83
2019-03-20T11:11:05.374Z,-83
2019-03-20T11:13:37.296Z,-80
2019-03-20T11:16:09.604Z,-84
2019-03-20T11:18:41.525Z,-82
2019-03-20T11:21:13.587Z,-82
2019-03-20T11:23:45.521Z,-82
2019-03-20T11:26:17.975Z,-82
2019-03-20T11:28:49.898Z,-82
2019-03-20T11:31:21.954Z,-82
2019-03-20T11:33:54.161Z,-81
2019-03-20T11:36:26.024Z,-82
2019-03-20T11:38:57.942Z,-82
2019-03-20T11:41:29.962Z,-81
2019-03-20T11:44:01.875Z,-81
2019-03-20T11:46:33.819Z,-82
2019-03-20T11:49:05.816Z,-82
2019-03-20T11:51:38.056Z,-81
2019-03-20T11:54:11.091Z,-82
2019-03-20T11:56:43.072Z,-84
2019-03-20T11:59:15.957Z,-82
2019-03-20T12:01:47.819Z,-84
2019-03-20T12:04:20.053Z,-82
2019-03-20T12:06:52.338Z,-85
2019-03-20T12:09:24.612Z,-84
2019-03-20T12:11:57.203Z,-84
2019-03-20T12:14:30.707Z,-83
2019-03-20T12:17:02.565Z,-83
2019-03-20T12:19:44.639Z,-83
2019-03-20T12:22:08.008Z,-83
2019-03-20T12:24:40.293Z,-84
2019-03-20T12:27:15.338Z,-84
2019-03-20T12:29:45.791Z,-84
2019-03-20T12:32:17.987Z,-83
2019-03-20T12:34:49.840Z,-82
2019-03-20T12:37:21.866Z,-82
2019-03-20T12:39:53.797Z,-84
2019-03-20T12:42:25.674Z,-82
2019-03-20T12:44:57.828Z,-84
2019-03-20T12:47:29.726Z,-82
2019-03-20T12:50:01.688Z,-82
2019-03-20T12:52:33.693Z,-83
2019-03-20T12:55:06.873Z,-83
2019-03-20T12:57:39.831Z,-81
2019-03-20T13:00:18.461Z,-83
2019-03-20T13:02:50.845Z,-81
2019-03-20T13:05:22.814Z,-83
2019-03-20T13:07:58.047Z,-81
2019-03-20T13:10:29.009Z,-79
2019-03-20T13:13:00.914Z,-80
2019-03-20T13:15:33.603Z,-80
2019-03-20T13:18:05.742Z,-80
2019-03-20T13:20:37.591Z,-81
2019-03-20T13:23:12.215Z,-81
2019-03-20T13:25:44.453Z,-81
2019-03-20T13:28:16.934Z,-80
2019-03-20T13:30:54.922Z,-81
2019-03-20T13:33:26.798Z,-81
2019-03-20T13:35:58.922Z,-81
2019-03-20T13:38:31.168Z,-80
2019-03-20T13:41:03.054Z,-82
2019-03-20T13:43:35.257Z,-81
2019-03-20T13:46:07.142Z,-81
2019-03-20T13:48:38.990Z,-81
2019-03-20T13:51:10.892Z,-81
2019-03-20T13:53:43.167Z,-80
2019-03-20T13:56:15.094Z,-82
2019-03-20T13:58:46.936Z,-82
2019-03-20T14:01:18.855Z,-81
2019-03-20T14:03:50.705Z,-82
2019-03-20T14:06:22.602Z,-82
2019-03-20T14:08:55.187Z,-82
2019-03-20T14:11:27.465Z,-82
2019-03-20T14:13:59.760Z,-82
2019-03-20T14:16:31.656Z,-82
2019-03-20T14:19:03.522Z,-81
2019-03-20T14:21:35.445Z,-82
2019-03-20T14:24:07.292Z,-81
2019-03-20T14:26:39.197Z,-82
2019-03-20T14:29:11.079Z,-82
2019-03-20T14:31:42.963Z,-82
2019-03-20T14:34:14.809Z,-82
2019-03-20T14:36:47.144Z,-82
2019-03-20T14:39:19.010Z,-82
2019-03-20T14:41:51.295Z,-82
2019-03-20T14:44:23.452Z,-82
2019-03-20T14:46:55.491Z,-81
2019-03-20T14:49:27.494Z,-82
2019-03-20T14:51:59.773Z,-82
2019-03-20T14:54:31.627Z,-82
2019-03-20T14:57:03.555Z,-81
2019-03-20T14:59:35.768Z,-82
2019-03-20T15:02:08.032Z,-82
2019-03-20T15:04:40.156Z,-82
2019-03-20T15:07:12.135Z,-82
2019-03-20T15:09:44.287Z,-82
2019-03-20T15:12:16.183Z,-82
2019-03-20T15:14:48.380Z,-82
2019-03-20T15:17:20.301Z,-80
2019-03-20T15:19:52.445Z,-81
2019-03-20T15:22:24.653Z,-81
2019-03-20T15:24:56.511Z,-81
2019-03-20T15:27:28.423Z,-81
2019-03-20T15:30:00.347Z,-81
2019-03-20T15:32:32.508Z,-81
2019-03-20T15:35:05.102Z,-81
2019-03-20T15:37:37.335Z,-82
2019-03-20T15:40:12.529Z,-82
2019-03-20T15:42:44.850Z,-81
2019-03-20T15:45:16.900Z,-82
2019-03-20T15:47:49.047Z,-82
2019-03-20T15:50:20.919Z,-82
2019-03-20T15:52:53.185Z,-80
2019-03-20T15:55:28.482Z,-81
2019-03-20T15:58:00.554Z,-81
2019-03-20T16:00:32.416Z,-82
2019-03-20T16:03:08.531Z,-83
2019-03-20T16:05:40.386Z,-82
2019-03-20T16:08:12.315Z,-82
2019-03-20T16:10:44.179Z,-82
2019-03-20T16:13:16.466Z,-83
2019-03-20T16:15:48.331Z,-80
2019-03-20T16:18:20.556Z,-81
2019-03-20T16:20:53.085Z,-81
2019-03-20T16:23:25.805Z,-81
2019-03-20T16:25:57.811Z,-81
2019-03-20T16:28:29.743Z,-80
2019-03-20T16:31:01.621Z,-83
2019-03-20T16:33:33.531Z,-81
2019-03-20T16:36:05.427Z,-81
2019-03-20T16:38:37.314Z,-83
2019-03-20T16:41:16.408Z,-83
2019-03-20T16:43:44.947Z,-84
2019-03-20T16:46:17.130Z,-83
2019-03-20T16:48:49.018Z,-81
2019-03-20T16:51:21.167Z,-83
2019-03-20T16:53:53.063Z,-80
2019-03-20T16:56:24.949Z,-81
2019-03-20T16:58:56.845Z,-80
2019-03-20T17:01:28.738Z,-83
2019-03-20T17:04:01.069Z,-81
2019-03-20T17:06:32.989Z,-82
2019-03-20T17:09:07.033Z,-82
2019-03-20T17:11:39.668Z,-82
2019-03-20T17:14:11.928Z,-82
2019-03-20T17:16:44.145Z,-86
2019-03-20T17:19:15.988Z,-82
2019-03-20T17:21:48.268Z,-82
2019-03-20T17:24:20.835Z,-82
2019-03-20T17:26:53.033Z,-83
2019-03-20T17:29:24.893Z,-81
2019-03-20T17:31:57.470Z,-82
2019-03-20T17:34:30.628Z,-82
2019-03-20T17:37:03.004Z,-81
2019-03-20T17:39:34.980Z,-82
2019-03-20T17:42:07.054Z,-82
2019-03-20T17:44:38.917Z,-82
2019-03-20T17:47:10.815Z,-84
2019-03-20T17:49:43.320Z,-80
2019-03-20T17:52:15.191Z,-81
2019-03-20T17:54:47.311Z,-81
2019-03-20T17:57:19.854Z,-82
2019-03-20T17:59:51.776Z,-82
2019-03-20T18:02:24.506Z,-81
2019-03-20T18:04:56.517Z,-81
2019-03-20T18:07:28.826Z,-80
2019-03-20T18:10:00.671Z,-80
2019-03-20T18:12:32.948Z,-80
2019-03-20T18:15:06.690Z,-85
2019-03-20T18:17:38.938Z,-84
2019-03-20T18:20:12.653Z,-84
2019-03-20T18:22:45.251Z,-85
2019-03-20T18:25:17.421Z,-85
2019-03-20T18:27:49.635Z,-84
2019-03-20T18:30:23.216Z,-85
2019-03-20T18:32:55.316Z,-81
2019-03-20T18:35:27.196Z,-80
2019-03-20T18:37:59.105Z,-81
2019-03-20T18:40:33.843Z,-80
2019-03-20T18:43:05.642Z,-80
2019-03-20T18:45:38.026Z,-80
2019-03-20T18:48:09.835Z,-80
2019-03-20T18:50:41.773Z,-80
2019-03-20T18:53:14.018Z,-80
2019-03-20T18:55:46.361Z,-80
2019-03-20T18:58:21.944Z,-82
2019-03-20T19:00:54.131Z,-82
2019-03-20T19:03:27.357Z,-81
2019-03-20T19:06:09.775Z,-81
2019-03-20T19:11:19.880Z,-80
2019-03-20T19:13:51.699Z,-81
2019-03-20T19:16:23.868Z,-80
2019-03-20T19:18:56.047Z,-80
2019-03-20T19:21:28.181Z,-80
2019-03-20T19:23:59.991Z,-82
2019-03-20T19:26:31.892Z,-80
2019-03-20T19:29:04.149Z,-80
2019-03-20T19:31:39.586Z,-81
2019-03-20T19:34:11.394Z,-80
2019-03-20T19:39:20.399Z,-83
2019-03-20T19:44:31.694Z,-83
2019-03-20T19:49:41.497Z,-83
2019-03-20T19:52:13.342Z,-82
2019-03-20T19:54:45.154Z,-82
2019-03-20T19:57:26.791Z,-82
2019-03-20T20:00:00.877Z,-82
2019-03-20T20:02:33.668Z,-83
2019-03-20T20:05:15.331Z,-82
2019-03-20T20:07:40.030Z,-84
2019-03-20T20:10:11.978Z,-82
2019-03-20T20:12:44.242Z,-83
2019-03-20T20:15:19.527Z,-83
2019-03-20T20:17:51.387Z,-83
2019-03-20T20:20:23.219Z,-83
2019-03-20T20:22:55.332Z,-83
2019-03-20T20:25:27.629Z,-83
2019-03-20T20:27:59.493Z,-83
2019-03-20T20:30:31.323Z,-83
2019-03-20T20:33:04.208Z,-83
2019-03-20T20:35:35.969Z,-84
2019-03-20T20:38:08.971Z,-83
2019-03-20T20:40:40.866Z,-83
2019-03-20T20:43:18.676Z,-85
2019-03-20T20:45:51.103Z,-84
2019-03-20T20:48:24.730Z,-84
2019-03-20T20:50:57.434Z,-83
2019-03-20T20:53:32.347Z,-83
2019-03-20T20:56:04.211Z,-83
2019-03-20T20:58:36.149Z,-83
2019-03-20T21:01:07.938Z,-83
2019-03-20T21:03:39.813Z,-83
2019-03-20T21:06:11.904Z,-82
2019-03-20T21:08:43.754Z,-82
2019-03-20T21:11:15.556Z,-83
2019-03-20T21:13:48.459Z,-83
2019-03-20T21:16:21.080Z,-83
2019-03-20T21:19:32.425Z,-83
2019-03-20T21:23:04.668Z,-84
2019-03-20T21:25:38.250Z,-82
2019-03-20T21:29:15.441Z,-82
2019-03-20T21:32:19.204Z,-83
2019-03-20T21:35:55.696Z,-83
2019-03-20T21:38:25.310Z,-83
2019-03-20T21:42:03.448Z,-83
2019-03-20T21:45:40.877Z,-83
2019-03-20T21:48:14.084Z,-82
2019-03-20T21:51:19.301Z,-83
2019-03-20T21:54:48.975Z,-86
2019-03-20T21:58:00.505Z,-84
2019-03-20T22:01:36.566Z,-85
2019-03-20T22:04:09.539Z,-86
2019-03-20T22:07:10.648Z,-85
2019-03-20T22:10:34.624Z,-85
2019-03-20T22:13:48.132Z,-85
2019-03-20T22:17:27.209Z,-85
2019-03-20T22:20:30.165Z,-85
2019-03-20T22:24:13.424Z,-85
2019-03-20T22:27:41.234Z,-86
2019-03-20T22:30:13.925Z,-84
2019-03-20T22:33:46.723Z,-85
2019-03-20T22:36:26.715Z,-86
2019-03-20T22:39:59.530Z,-86
2019-03-20T22:43:30.382Z,-86
2019-03-20T22:47:19.573Z,-86
2019-03-20T22:50:52.124Z,-86
2019-03-20T22:54:11.906Z,-85
2019-03-20T22:58:02.103Z,-86
2019-03-20T23:00:38.140Z,-86
2019-03-20T23:03:27.060Z,-86
2019-03-20T23:05:59.861Z,-86
2019-03-20T23:08:32.872Z,-85
2019-03-20T23:11:08.881Z,-85
2019-03-20T23:13:42.510Z,-85
2019-03-20T23:16:17.927Z,-85
2019-03-20T23:18:50.938Z,-86
2019-03-20T23:24:02.226Z,-86
2019-03-20T23:26:34.919Z,-85
2019-03-20T23:29:07.833Z,-85
2019-03-20T23:31:40.755Z,-87
2019-03-20T23:34:13.603Z,-85
2019-03-20T23:36:46.505Z,-85
2019-03-20T23:39:19.362Z,-86
2019-03-20T23:41:52.244Z,-85
2019-03-20T23:44:25.363Z,-86
2019-03-20T23:46:58.402Z,-86
2019-03-20T23:49:31.995Z,-85
2019-03-20T23:52:04.685Z,-86
2019-03-20T23:54:48.009Z,-86
2019-03-20T23:57:22.810Z,-86
2019-03-20T23:59:58.511Z,-86
